Time;durP1;ratioP1;P1;durP2;ratioP2;P2;SDS_P1;SDS_P2;PMS_P1;PMS_P2;Temp;Humidity;BMP_temperature;BMP_pressure;BME280_temperature;BME280_humidity;BME280_pressure;Samples;Min_cycle;Max_cycle;Signal;HPM_P1;HPM_P2
2022/05/05 00:00:00;;;;;;;6.63;2.90;;;;;;;;;;515759;28;1411;-82
2022/05/05 00:00:16;;;;;;;5.70;2.73;;;;;;;;;;513372;28;1445;-82
2022/05/05 00:00:32;;;;;;;5.00;2.75;;;;;;;;;;513387;28;1695;-83
2022/05/05 00:00:47;;;;;;;5.63;2.90;;;;;;;;;;511511;28;1647;-82
2022/05/05 00:01:02;;;;;;;5.45;2.97;;;;;;;;;;512616;28;1394;-82
2022/05/05 00:01:18;;;;;;;6.50;3.10;;;;;;;;;;514122;28;908;-83
2022/05/05 00:01:33;;;;;;;6.85;3.03;;;;;;;;;;515474;28;1532;-82
2022/05/05 00:01:49;;;;;;;6.30;2.90;;;;;;;;;;513714;28;1521;-82
2022/05/05 00:02:05;;;;;;;5.88;2.83;;;;;;;;;;513917;28;1564;-83
2022/05/05 00:02:21;;;;;;;4.97;2.80;;;;;;;;;;515679;28;1492;-82
2022/05/05 00:02:36;;;;;;;5.28;2.83;;;;;;;;;;513925;28;1520;-82
2022/05/05 00:02:52;;;;;;;4.87;2.70;;;;;;;;;;513074;28;1698;-82
2022/05/05 00:03:07;;;;;;;5.30;2.70;;;;;;;;;;513602;28;1620;-82
2022/05/05 00:03:26;;;;;;;5.23;2.70;;;;;;;;;;513295;28;1555;-83
2022/05/05 00:03:41;;;;;;;5.40;2.70;;;;;;;;;;511885;28;1437;-84
2022/05/05 00:03:57;;;;;;;4.83;2.80;;;;;;;;;;514782;28;2091;-84
2022/05/05 00:04:12;;;;;;;6.53;2.88;;;;;;;;;;512906;28;1437;-84
2022/05/05 00:04:28;;;;;;;6.90;2.90;;;;;;;;;;512824;28;1504;-84
2022/05/05 00:04:43;;;;;;;5.07;2.80;;;;;;;;;;512976;28;1683;-84
2022/05/05 00:04:58;;;;;;;5.53;2.60;;;;;;;;;;514388;28;1495;-83
2022/05/05 00:05:14;;;;;;;5.60;2.77;;;;;;;;;;511502;28;1633;-84
2022/05/05 00:05:30;;;;;;;6.18;2.83;;;;;;;;;;512573;28;1477;-83
2022/05/05 00:05:45;;;;;;;6.25;2.70;;;;;;;;;;514417;28;1464;-84
2022/05/05 00:06:01;;;;;;;5.87;2.80;;;;;;;;;;512283;28;1414;-84
2022/05/05 00:06:16;;;;;;;5.57;2.70;;;;;;;;;;509823;29;1733;-84
2022/05/05 00:06:32;;;;;;;5.10;2.90;;;;;;;;;;510882;28;1941;-84
2022/05/05 00:06:50;;;;;;;6.03;3.00;;;;;;;;;;512059;28;2258;-84
2022/05/05 00:07:06;;;;;;;7.00;3.00;;;;;;;;;;512822;28;1856;-84
2022/05/05 00:07:21;;;;;;;7.80;2.90;;;;;;;;;;514052;28;1477;-84
2022/05/05 00:07:36;;;;;;;8.53;2.83;;;;;;;;;;514018;28;1669;-84
2022/05/05 00:07:52;;;;;;;6.70;2.80;;;;;;;;;;514427;28;1425;-84
2022/05/05 00:08:09;;;;;;;4.53;2.72;;;;;;;;;;514125;28;1530;-84
2022/05/05 00:08:24;;;;;;;5.25;2.70;;;;;;;;;;513046;28;1493;-84
2022/05/05 00:08:40;;;;;;;6.10;2.87;;;;;;;;;;513719;28;1575;-83
2022/05/05 00:08:55;;;;;;;7.00;2.90;;;;;;;;;;514193;28;1803;-83
2022/05/05 00:09:13;;;;;;;6.60;2.70;;;;;;;;;;515148;28;1411;-83
2022/05/05 00:09:29;;;;;;;5.03;2.60;;;;;;;;;;516302;28;1504;-84
2022/05/05 00:09:45;;;;;;;4.85;2.55;;;;;;;;;;513603;28;1448;-84
2022/05/05 00:14:23;;;;;;;4.00;2.50;;;;;;;;;;512080;28;1425;-83
2022/05/05 00:14:34;;;;;;;5.43;2.53;;;;;;;;;;518461;28;1461;-84
2022/05/05 00:14:49;;;;;;;5.40;2.70;;;;;;;;;;516402;28;1831;-84
2022/05/05 00:15:07;;;;;;;5.03;2.70;;;;;;;;;;514905;28;1475;-84
2022/05/05 00:15:22;;;;;;;6.50;2.78;;;;;;;;;;515080;28;1491;-84
2022/05/05 00:15:38;;;;;;;6.37;2.90;;;;;;;;;;514758;28;1527;-84
2022/05/05 00:15:54;;;;;;;5.10;2.90;;;;;;;;;;513017;28;1418;-84
2022/05/05 00:16:09;;;;;;;4.72;2.80;;;;;;;;;;512990;28;1577;-84
2022/05/05 00:16:27;;;;;;;4.40;2.85;;;;;;;;;;513337;28;1444;-84
2022/05/05 00:16:42;;;;;;;5.07;3.00;;;;;;;;;;511807;28;1668;-84
2022/05/05 00:17:03;;;;;;;5.20;2.90;;;;;;;;;;513427;28;1559;-84
2022/05/05 00:17:19;;;;;;;4.97;2.60;;;;;;;;;;513376;28;1532;-84
2022/05/05 00:17:35;;;;;;;5.00;2.70;;;;;;;;;;512589;28;1641;-84
2022/05/05 00:17:51;;;;;;;7.40;2.90;;;;;;;;;;511479;28;1637;-84
2022/05/05 00:18:06;;;;;;;7.63;2.80;;;;;;;;;;512202;28;1744;-83
2022/05/05 00:18:21;;;;;;;5.55;2.80;;;;;;;;;;512359;28;1726;-83
2022/05/05 00:18:37;;;;;;;6.07;2.73;;;;;;;;;;513091;28;1471;-83
2022/05/05 00:18:52;;;;;;;5.57;2.70;;;;;;;;;;514525;28;1464;-84
2022/05/05 00:19:07;;;;;;;5.78;2.65;;;;;;;;;;513854;28;1673;-83
2022/05/05 00:19:24;;;;;;;6.63;2.73;;;;;;;;;;514077;28;1643;-84
2022/05/05 00:19:41;;;;;;;6.45;2.90;;;;;;;;;;514517;28;1545;-83
2022/05/05 00:19:57;;;;;;;6.72;2.67;;;;;;;;;;512696;28;1899;-83
2022/05/05 00:20:12;;;;;;;6.68;2.55;;;;;;;;;;514909;28;1542;-84
2022/05/05 00:20:28;;;;;;;6.00;2.90;;;;;;;;;;515976;28;1551;-84
2022/05/05 00:20:43;;;;;;;5.50;2.93;;;;;;;;;;516054;28;1428;-83
2022/05/05 00:20:58;;;;;;;5.43;2.80;;;;;;;;;;514040;28;1471;-84
2022/05/05 00:21:15;;;;;;;6.17;2.93;;;;;;;;;;514623;28;1470;-83
2022/05/05 00:21:31;;;;;;;5.78;3.00;;;;;;;;;;512137;28;1587;-84
2022/05/05 00:21:47;;;;;;;5.43;2.80;;;;;;;;;;512772;28;1552;-84
2022/05/05 00:22:04;;;;;;;6.33;2.83;;;;;;;;;;514349;28;1690;-84
2022/05/05 00:22:19;;;;;;;5.75;2.90;;;;;;;;;;512439;28;1567;-84
2022/05/05 00:22:35;;;;;;;4.90;2.93;;;;;;;;;;512341;28;1429;-84
2022/05/05 00:22:50;;;;;;;5.90;2.90;;;;;;;;;;511928;28;1730;-84
2022/05/05 00:23:06;;;;;;;5.43;2.70;;;;;;;;;;511632;28;1398;-84
2022/05/05 00:23:21;;;;;;;5.23;2.70;;;;;;;;;;512794;28;1475;-84
2022/05/05 00:23:36;;;;;;;6.53;2.80;;;;;;;;;;514212;28;1439;-83
2022/05/05 00:23:52;;;;;;;6.67;2.87;;;;;;;;;;514365;28;1570;-84
2022/05/05 00:24:08;;;;;;;7.03;3.00;;;;;;;;;;513720;28;1408;-84
2022/05/05 00:24:24;;;;;;;6.85;2.88;;;;;;;;;;514691;28;1624;-84
2022/05/05 00:24:39;;;;;;;6.77;3.00;;;;;;;;;;513164;28;1490;-84
2022/05/05 00:24:55;;;;;;;6.90;3.00;;;;;;;;;;512834;28;1528;-84
2022/05/05 00:25:10;;;;;;;7.43;3.10;;;;;;;;;;513545;28;1540;-84
2022/05/05 00:25:25;;;;;;;5.93;3.00;;;;;;;;;;512997;28;1694;-84
2022/05/05 00:25:41;;;;;;;4.73;2.80;;;;;;;;;;512791;28;1524;-83
2022/05/05 00:25:56;;;;;;;6.70;3.13;;;;;;;;;;513160;28;1859;-84
2022/05/05 00:26:12;;;;;;;7.57;3.00;;;;;;;;;;515274;28;1457;-84
2022/05/05 00:26:27;;;;;;;7.87;3.00;;;;;;;;;;516493;28;1483;-84
2022/05/05 00:26:43;;;;;;;6.68;3.00;;;;;;;;;;518289;28;1419;-84
2022/05/05 00:26:59;;;;;;;6.07;3.00;;;;;;;;;;516114;28;1694;-84
2022/05/05 00:27:14;;;;;;;6.00;3.07;;;;;;;;;;516210;28;1539;-84
2022/05/05 00:27:30;;;;;;;5.32;2.63;;;;;;;;;;516690;28;2041;-84
2022/05/05 00:27:46;;;;;;;5.68;2.70;;;;;;;;;;516146;28;1478;-84
2022/05/05 00:28:01;;;;;;;4.88;2.70;;;;;;;;;;516355;28;1656;-84
2022/05/05 00:28:18;;;;;;;5.30;2.70;;;;;;;;;;516142;28;1490;-84
2022/05/05 00:28:33;;;;;;;5.93;2.83;;;;;;;;;;516418;28;1530;-84
2022/05/05 00:28:48;;;;;;;5.88;2.75;;;;;;;;;;516181;28;1731;-84
2022/05/05 00:29:05;;;;;;;6.23;2.70;;;;;;;;;;516334;28;1334;-84
2022/05/05 00:29:21;;;;;;;5.95;2.85;;;;;;;;;;512088;28;1545;-84
2022/05/05 00:29:36;;;;;;;5.55;3.03;;;;;;;;;;512718;28;1635;-84
2022/05/05 00:29:51;;;;;;;5.67;3.10;;;;;;;;;;514318;28;1389;-84
2022/05/05 00:30:09;;;;;;;5.23;2.93;;;;;;;;;;516454;28;1537;-83
2022/05/05 00:30:24;;;;;;;4.93;2.80;;;;;;;;;;515524;28;1442;-83
2022/05/05 00:30:39;;;;;;;5.07;3.03;;;;;;;;;;511440;28;1686;-83
2022/05/05 00:30:55;;;;;;;5.07;3.00;;;;;;;;;;512609;28;1633;-84
2022/05/05 00:31:10;;;;;;;6.13;3.00;;;;;;;;;;510482;28;1580;-83
2022/05/05 00:31:26;;;;;;;6.75;2.90;;;;;;;;;;510454;28;1688;-84
2022/05/05 00:31:43;;;;;;;5.15;2.72;;;;;;;;;;512285;28;1772;-84
2022/05/05 00:31:58;;;;;;;4.15;2.70;;;;;;;;;;511576;28;1495;-84
2022/05/05 00:32:14;;;;;;;4.55;2.72;;;;;;;;;;511149;28;1615;-84
2022/05/05 00:32:29;;;;;;;5.03;2.80;;;;;;;;;;511299;28;1632;-84
2022/05/05 00:32:44;;;;;;;4.68;2.70;;;;;;;;;;510482;29;1958;-84
2022/05/05 00:33:00;;;;;;;4.00;2.70;;;;;;;;;;511020;28;1478;-84
2022/05/05 00:33:15;;;;;;;4.73;2.97;;;;;;;;;;510285;28;1547;-84
2022/05/05 00:33:31;;;;;;;4.97;3.00;;;;;;;;;;510836;28;1589;-83
2022/05/05 00:33:46;;;;;;;4.80;2.83;;;;;;;;;;510269;28;1413;-83
2022/05/05 00:34:02;;;;;;;5.63;3.00;;;;;;;;;;510118;29;1594;-83
2022/05/05 00:34:17;;;;;;;6.10;3.10;;;;;;;;;;510983;28;1342;-84
2022/05/05 00:34:33;;;;;;;6.20;3.08;;;;;;;;;;511279;28;1663;-84
2022/05/05 00:34:48;;;;;;;6.70;3.00;;;;;;;;;;511246;28;1898;-85
2022/05/05 00:35:04;;;;;;;7.67;3.03;;;;;;;;;;511182;28;1654;-84
2022/05/05 00:35:20;;;;;;;6.68;3.10;;;;;;;;;;511363;28;1456;-84
2022/05/05 00:35:35;;;;;;;5.30;2.80;;;;;;;;;;512047;28;1485;-84
2022/05/05 00:35:50;;;;;;;5.43;2.83;;;;;;;;;;512686;28;1532;-83
2022/05/05 00:36:06;;;;;;;5.60;2.93;;;;;;;;;;515743;28;1432;-84
2022/05/05 00:36:21;;;;;;;5.18;2.90;;;;;;;;;;514180;28;1409;-84
2022/05/05 00:36:37;;;;;;;5.67;2.90;;;;;;;;;;514232;28;1702;-84
2022/05/05 00:36:53;;;;;;;6.55;3.00;;;;;;;;;;513987;28;1393;-84
2022/05/05 00:37:08;;;;;;;6.30;3.00;;;;;;;;;;514329;28;1551;-84
2022/05/05 00:37:23;;;;;;;5.88;2.88;;;;;;;;;;514077;28;1472;-84
2022/05/05 00:37:39;;;;;;;5.67;2.73;;;;;;;;;;512015;28;1422;-84
2022/05/05 00:37:54;;;;;;;7.05;2.97;;;;;;;;;;510739;28;1482;-84
2022/05/05 00:38:09;;;;;;;7.03;3.10;;;;;;;;;;510298;28;1374;-84
2022/05/05 00:38:25;;;;;;;4.90;2.80;;;;;;;;;;511848;28;1545;-84
2022/05/05 00:38:40;;;;;;;4.45;2.75;;;;;;;;;;511639;28;1453;-84
2022/05/05 00:38:56;;;;;;;5.60;2.67;;;;;;;;;;511800;28;1572;-84
2022/05/05 00:39:12;;;;;;;6.67;2.77;;;;;;;;;;513598;28;1519;-84
2022/05/05 00:39:27;;;;;;;6.63;2.80;;;;;;;;;;514253;28;1405;-84
2022/05/05 00:39:42;;;;;;;5.80;2.80;;;;;;;;;;512481;28;1575;-84
2022/05/05 00:39:59;;;;;;;5.07;2.70;;;;;;;;;;510223;28;1912;-84
2022/05/05 00:40:14;;;;;;;4.40;2.60;;;;;;;;;;510272;28;1717;-84
2022/05/05 00:40:30;;;;;;;4.00;2.60;;;;;;;;;;510978;28;1706;-84
2022/05/05 00:40:46;;;;;;;5.03;2.75;;;;;;;;;;510978;28;1700;-84
2022/05/05 00:41:01;;;;;;;6.37;3.00;;;;;;;;;;512347;28;1746;-84
2022/05/05 00:41:17;;;;;;;7.85;3.00;;;;;;;;;;512127;28;1652;-84
2022/05/05 00:41:36;;;;;;;5.80;2.87;;;;;;;;;;512506;28;1528;-84
2022/05/05 00:41:52;;;;;;;4.65;3.05;;;;;;;;;;514470;28;1603;-84
2022/05/05 00:42:11;;;;;;;4.53;2.95;;;;;;;;;;515952;28;1586;-84
2022/05/05 00:42:27;;;;;;;4.45;2.60;;;;;;;;;;515748;28;1622;-84
2022/05/05 00:42:43;;;;;;;4.80;2.47;;;;;;;;;;516132;28;1574;-84
2022/05/05 00:42:58;;;;;;;4.40;2.60;;;;;;;;;;517974;28;1643;-84
2022/05/05 00:43:14;;;;;;;5.07;2.70;;;;;;;;;;517999;28;1447;-84
2022/05/05 00:43:30;;;;;;;5.22;2.78;;;;;;;;;;516278;28;1402;-84
2022/05/05 00:43:45;;;;;;;6.00;2.90;;;;;;;;;;515969;28;1758;-84
2022/05/05 00:44:03;;;;;;;5.97;2.83;;;;;;;;;;516070;28;1533;-84
2022/05/05 00:44:19;;;;;;;5.90;2.80;;;;;;;;;;514968;28;1452;-84
2022/05/05 00:44:34;;;;;;;6.50;2.85;;;;;;;;;;515960;28;1698;-84
2022/05/05 00:44:50;;;;;;;6.87;2.90;;;;;;;;;;516084;28;1523;-84
2022/05/05 00:45:06;;;;;;;6.60;2.93;;;;;;;;;;516134;28;1564;-84
2022/05/05 00:45:21;;;;;;;6.47;2.75;;;;;;;;;;514958;28;1620;-84
2022/05/05 00:45:37;;;;;;;6.60;2.85;;;;;;;;;;516274;28;1849;-83
2022/05/05 00:45:52;;;;;;;7.82;3.00;;;;;;;;;;514949;28;1519;-84
2022/05/05 00:46:08;;;;;;;7.33;2.87;;;;;;;;;;513121;28;1784;-84
2022/05/05 00:46:24;;;;;;;6.43;3.00;;;;;;;;;;514200;28;1691;-83
2022/05/05 00:46:40;;;;;;;6.43;3.00;;;;;;;;;;514413;28;1632;-84
2022/05/05 00:46:56;;;;;;;5.72;2.83;;;;;;;;;;514482;28;1693;-84
2022/05/05 00:47:15;;;;;;;5.03;2.60;;;;;;;;;;514993;28;1467;-84
2022/05/05 00:47:30;;;;;;;5.60;2.70;;;;;;;;;;516385;28;1630;-84
2022/05/05 00:47:46;;;;;;;5.90;2.83;;;;;;;;;;515954;28;1685;-84
2022/05/05 00:48:06;;;;;;;5.60;2.90;;;;;;;;;;517004;28;1412;-84
2022/05/05 00:48:28;;;;;;;5.70;2.85;;;;;;;;;;518273;28;1537;-84
2022/05/05 00:48:44;;;;;;;5.25;2.70;;;;;;;;;;518309;28;1627;-84
2022/05/05 00:49:00;;;;;;;5.07;2.63;;;;;;;;;;517855;28;1454;-84
2022/05/05 00:49:16;;;;;;;5.00;2.70;;;;;;;;;;516078;28;1873;-84
2022/05/05 00:49:31;;;;;;;4.25;2.60;;;;;;;;;;515769;28;1736;-84
2022/05/05 00:49:49;;;;;;;4.87;2.83;;;;;;;;;;516320;28;1535;-84
2022/05/05 00:50:05;;;;;;;5.47;3.00;;;;;;;;;;515823;28;1400;-84
2022/05/05 00:50:21;;;;;;;6.13;2.92;;;;;;;;;;514042;28;1611;-84
2022/05/05 00:50:36;;;;;;;5.95;2.72;;;;;;;;;;514012;28;1468;-84
2022/05/05 00:50:52;;;;;;;5.50;2.80;;;;;;;;;;514216;28;1503;-84
2022/05/05 00:51:08;;;;;;;4.60;2.75;;;;;;;;;;514438;28;1777;-84
2022/05/05 00:51:24;;;;;;;4.30;2.90;;;;;;;;;;513866;28;1531;-84
2022/05/05 00:51:39;;;;;;;4.13;2.97;;;;;;;;;;513772;28;1579;-84
2022/05/05 00:51:57;;;;;;;4.35;2.80;;;;;;;;;;514285;28;1802;-84
2022/05/05 00:52:13;;;;;;;4.80;2.70;;;;;;;;;;514322;28;1742;-84
2022/05/05 00:52:28;;;;;;;5.37;2.80;;;;;;;;;;515099;28;1476;-84
2022/05/05 00:52:43;;;;;;;6.13;2.90;;;;;;;;;;516326;28;1680;-84
2022/05/05 00:52:59;;;;;;;6.17;3.07;;;;;;;;;;515949;28;1456;-84
2022/05/05 00:53:14;;;;;;;5.57;3.08;;;;;;;;;;513977;28;1412;-84
2022/05/05 00:53:30;;;;;;;5.70;2.93;;;;;;;;;;515451;28;1828;-84
2022/05/05 00:53:45;;;;;;;5.73;2.83;;;;;;;;;;515806;28;1518;-85
2022/05/05 00:54:00;;;;;;;5.95;2.80;;;;;;;;;;515095;28;1492;-84
2022/05/05 00:54:16;;;;;;;5.90;3.00;;;;;;;;;;516184;28;1844;-83
2022/05/05 00:54:31;;;;;;;6.27;2.90;;;;;;;;;;516227;28;1509;-83
2022/05/05 00:54:47;;;;;;;6.30;2.80;;;;;;;;;;515897;28;1605;-84
2022/05/05 00:55:02;;;;;;;5.60;2.80;;;;;;;;;;512043;28;1470;-84
2022/05/05 00:55:18;;;;;;;5.30;2.80;;;;;;;;;;514118;28;1559;-84
2022/05/05 00:55:37;;;;;;;5.87;2.83;;;;;;;;;;512149;28;1496;-84
2022/05/05 00:55:56;;;;;;;6.10;2.80;;;;;;;;;;511652;28;1585;-84
2022/05/05 00:56:14;;;;;;;8.27;2.97;;;;;;;;;;512214;28;1991;-84
2022/05/05 00:56:29;;;;;;;7.72;2.80;;;;;;;;;;511891;28;1663;-83
2022/05/05 00:56:45;;;;;;;5.57;2.70;;;;;;;;;;513493;28;1456;-84
2022/05/05 00:57:03;;;;;;;6.20;2.60;;;;;;;;;;515515;28;1618;-84
2022/05/05 00:57:18;;;;;;;5.60;2.63;;;;;;;;;;515764;28;1546;-84
2022/05/05 00:57:35;;;;;;;4.20;2.80;;;;;;;;;;518691;28;1427;-84
2022/05/05 00:57:51;;;;;;;6.30;3.00;;;;;;;;;;517857;28;1732;-83
2022/05/05 00:58:07;;;;;;;6.73;2.90;;;;;;;;;;518131;28;1396;-84
2022/05/05 00:58:25;;;;;;;6.32;3.00;;;;;;;;;;518116;28;1822;-83
2022/05/05 00:58:42;;;;;;;5.90;2.92;;;;;;;;;;518442;28;1787;-84
2022/05/05 00:58:58;;;;;;;5.47;2.80;;;;;;;;;;516523;28;1727;-84
2022/05/05 00:59:14;;;;;;;5.38;2.70;;;;;;;;;;514300;28;1557;-84
2022/05/05 00:59:30;;;;;;;5.55;2.83;;;;;;;;;;512880;28;1523;-84
2022/05/05 00:59:50;;;;;;;6.60;3.00;;;;;;;;;;512340;28;1474;-84
2022/05/05 01:00:05;;;;;;;5.50;2.83;;;;;;;;;;511751;28;1552;-84
2022/05/05 01:00:21;;;;;;;4.80;2.97;;;;;;;;;;512126;28;1560;-84
2022/05/05 01:00:38;;;;;;;4.67;2.90;;;;;;;;;;511963;28;1537;-84
2022/05/05 01:00:54;;;;;;;5.47;2.95;;;;;;;;;;511231;28;1485;-84
2022/05/05 01:01:14;;;;;;;6.78;3.40;;;;;;;;;;511633;28;1649;-84
2022/05/05 01:01:31;;;;;;;5.88;3.30;;;;;;;;;;512734;28;1583;-84
2022/05/05 01:01:47;;;;;;;6.43;3.28;;;;;;;;;;512143;28;1762;-84
2022/05/05 01:02:04;;;;;;;6.18;3.20;;;;;;;;;;512248;28;1409;-84
2022/05/05 01:02:19;;;;;;;6.32;3.17;;;;;;;;;;511952;28;1432;-84
2022/05/05 01:02:35;;;;;;;6.47;3.30;;;;;;;;;;512143;28;1607;-84
2022/05/05 01:02:52;;;;;;;7.13;3.20;;;;;;;;;;514036;28;1643;-84
2022/05/05 01:03:09;;;;;;;7.40;3.15;;;;;;;;;;513847;28;1806;-84
2022/05/05 01:03:25;;;;;;;7.57;3.08;;;;;;;;;;514090;28;1669;-84
2022/05/05 01:03:40;;;;;;;8.53;3.20;;;;;;;;;;516396;28;1441;-84
2022/05/05 01:03:55;;;;;;;7.80;3.13;;;;;;;;;;514566;28;1531;-84
2022/05/05 01:04:12;;;;;;;5.87;2.97;;;;;;;;;;514557;28;1512;-84
2022/05/05 01:04:28;;;;;;;5.72;3.08;;;;;;;;;;515545;28;1557;-84
2022/05/05 01:04:43;;;;;;;5.37;3.00;;;;;;;;;;515948;28;1950;-84
2022/05/05 01:04:58;;;;;;;4.75;2.97;;;;;;;;;;513501;28;1546;-84
2022/05/05 01:05:14;;;;;;;4.57;2.90;;;;;;;;;;512624;28;1599;-84
2022/05/05 01:05:32;;;;;;;5.68;2.80;;;;;;;;;;512764;28;1481;-84
2022/05/05 01:05:47;;;;;;;6.90;3.00;;;;;;;;;;512847;28;1687;-84
2022/05/05 01:06:04;;;;;;;5.95;3.00;;;;;;;;;;515186;28;1554;-84
2022/05/05 01:06:20;;;;;;;5.93;3.10;;;;;;;;;;514385;28;1541;-84
2022/05/05 01:06:36;;;;;;;5.97;3.30;;;;;;;;;;515602;28;1575;-84
2022/05/05 01:06:52;;;;;;;5.07;3.10;;;;;;;;;;515460;28;1498;-84
2022/05/05 01:07:08;;;;;;;6.25;3.20;;;;;;;;;;514030;28;1625;-84
2022/05/05 01:07:25;;;;;;;6.25;3.30;;;;;;;;;;514070;28;1778;-84
2022/05/05 01:07:40;;;;;;;4.97;2.90;;;;;;;;;;514743;28;1497;-84
2022/05/05 01:07:57;;;;;;;6.10;2.90;;;;;;;;;;514070;28;1574;-84
2022/05/05 01:08:13;;;;;;;7.05;3.00;;;;;;;;;;515444;28;1562;-84
2022/05/05 01:08:28;;;;;;;6.65;3.00;;;;;;;;;;516261;28;1755;-84
2022/05/05 01:08:44;;;;;;;5.75;2.88;;;;;;;;;;516240;28;1385;-84
2022/05/05 01:09:00;;;;;;;5.55;2.72;;;;;;;;;;514950;28;1416;-84
2022/05/05 01:09:15;;;;;;;4.93;2.90;;;;;;;;;;514948;28;1936;-84
2022/05/05 01:09:34;;;;;;;5.20;3.10;;;;;;;;;;514676;28;1662;-84
2022/05/05 01:09:49;;;;;;;5.55;3.10;;;;;;;;;;513955;28;1880;-84
2022/05/05 01:10:05;;;;;;;5.50;2.85;;;;;;;;;;514029;28;1538;-84
2022/05/05 01:10:22;;;;;;;6.88;3.00;;;;;;;;;;513608;28;1656;-84
2022/05/05 01:10:37;;;;;;;8.48;3.28;;;;;;;;;;513704;28;1587;-84
2022/05/05 01:10:52;;;;;;;7.93;3.17;;;;;;;;;;513235;28;1682;-84
2022/05/05 01:11:08;;;;;;;5.03;2.90;;;;;;;;;;512740;28;1519;-84
2022/05/05 01:11:24;;;;;;;4.88;2.90;;;;;;;;;;514278;28;1530;-84
2022/05/05 01:11:39;;;;;;;5.20;2.97;;;;;;;;;;514369;28;1634;-84
2022/05/05 01:11:55;;;;;;;5.53;2.90;;;;;;;;;;514309;28;1385;-84
2022/05/05 01:12:11;;;;;;;5.18;2.75;;;;;;;;;;514276;28;1758;-84
2022/05/05 01:12:29;;;;;;;4.70;2.80;;;;;;;;;;514217;28;1463;-84
2022/05/05 01:12:44;;;;;;;6.35;3.13;;;;;;;;;;513535;28;1579;-84
2022/05/05 01:13:03;;;;;;;6.65;3.13;;;;;;;;;;515124;28;1746;-84
2022/05/05 01:13:18;;;;;;;5.55;2.90;;;;;;;;;;516169;28;1479;-84
2022/05/05 01:13:38;;;;;;;4.82;2.80;;;;;;;;;;515830;28;1496;-84
2022/05/05 01:13:53;;;;;;;5.47;2.88;;;;;;;;;;513983;28;1425;-84
2022/05/05 01:14:09;;;;;;;6.18;3.13;;;;;;;;;;515213;28;1512;-84
2022/05/05 01:14:24;;;;;;;5.67;3.10;;;;;;;;;;515487;28;1412;-84
2022/05/05 01:14:39;;;;;;;5.22;2.95;;;;;;;;;;514967;28;1447;-84
2022/05/05 01:14:55;;;;;;;5.40;3.00;;;;;;;;;;515029;28;1492;-84
2022/05/05 01:15:11;;;;;;;6.82;3.10;;;;;;;;;;513802;28;1419;-84
2022/05/05 01:15:28;;;;;;;8.77;3.17;;;;;;;;;;510185;28;1524;-84
2022/05/05 01:15:43;;;;;;;5.70;2.75;;;;;;;;;;511043;28;1489;-84
2022/05/05 01:15:59;;;;;;;5.97;2.67;;;;;;;;;;512781;28;2111;-84
2022/05/05 01:16:16;;;;;;;8.90;3.03;;;;;;;;;;514277;28;1480;-84
2022/05/05 01:16:31;;;;;;;7.85;3.17;;;;;;;;;;514752;28;1432;-84
2022/05/05 01:16:47;;;;;;;8.93;3.30;;;;;;;;;;512138;28;1521;-84
2022/05/05 01:17:02;;;;;;;8.53;3.30;;;;;;;;;;513648;28;1419;-84
2022/05/05 01:17:18;;;;;;;7.07;3.00;;;;;;;;;;513026;28;1615;-84
2022/05/05 01:17:33;;;;;;;6.07;2.97;;;;;;;;;;512138;28;1437;-84
2022/05/05 01:17:49;;;;;;;5.75;3.08;;;;;;;;;;511619;28;1810;-84
2022/05/05 01:18:04;;;;;;;5.50;2.90;;;;;;;;;;512926;28;1562;-84
2022/05/05 01:18:20;;;;;;;6.07;2.88;;;;;;;;;;512526;28;1584;-84
2022/05/05 01:18:36;;;;;;;5.47;2.83;;;;;;;;;;512912;28;1434;-84
2022/05/05 01:18:55;;;;;;;4.60;2.90;;;;;;;;;;512261;28;1639;-84
2022/05/05 01:19:11;;;;;;;5.15;2.90;;;;;;;;;;513386;28;1488;-84
2022/05/05 01:19:26;;;;;;;4.50;2.73;;;;;;;;;;514656;28;1659;-84
2022/05/05 01:19:41;;;;;;;4.23;2.70;;;;;;;;;;513633;28;1719;-84
2022/05/05 01:19:56;;;;;;;5.00;2.72;;;;;;;;;;513003;28;1931;-84
2022/05/05 01:20:13;;;;;;;5.80;2.77;;;;;;;;;;511852;28;1667;-84
2022/05/05 01:20:29;;;;;;;6.05;2.80;;;;;;;;;;513727;28;1587;-84
2022/05/05 01:20:46;;;;;;;5.53;2.97;;;;;;;;;;514112;28;1674;-84
2022/05/05 01:21:03;;;;;;;5.57;3.33;;;;;;;;;;512596;28;1560;-84
2022/05/05 01:21:19;;;;;;;6.28;3.33;;;;;;;;;;513870;28;1503;-84
2022/05/05 01:21:35;;;;;;;5.65;2.90;;;;;;;;;;512401;28;1429;-84
2022/05/05 01:21:54;;;;;;;5.17;2.80;;;;;;;;;;512338;28;1656;-84
2022/05/05 01:22:10;;;;;;;4.72;2.88;;;;;;;;;;514063;28;1693;-84
2022/05/05 01:22:26;;;;;;;4.50;2.80;;;;;;;;;;512903;28;1445;-84
2022/05/05 01:22:41;;;;;;;4.47;2.70;;;;;;;;;;512494;28;1765;-84
2022/05/05 01:22:57;;;;;;;4.55;2.60;;;;;;;;;;511264;28;1370;-84
2022/05/05 01:23:15;;;;;;;4.33;2.50;;;;;;;;;;512061;28;1693;-84
2022/05/05 01:23:31;;;;;;;5.20;2.80;;;;;;;;;;512119;28;1592;-84
2022/05/05 01:23:46;;;;;;;6.07;2.97;;;;;;;;;;512280;28;1485;-84
2022/05/05 01:24:02;;;;;;;6.53;2.90;;;;;;;;;;511900;28;1481;-85
2022/05/05 01:24:17;;;;;;;6.07;3.00;;;;;;;;;;513012;28;1496;-84
2022/05/05 01:28:10;;;;;;;5.70;2.92;;;;;;;;;;518403;28;1615;-84
2022/05/05 01:28:27;;;;;;;7.18;3.00;;;;;;;;;;518305;28;1458;-84
2022/05/05 01:28:44;;;;;;;6.32;2.90;;;;;;;;;;516511;28;1514;-84
2022/05/05 01:29:01;;;;;;;5.45;2.95;;;;;;;;;;516034;28;1505;-84
2022/05/05 01:29:16;;;;;;;6.50;3.13;;;;;;;;;;516051;28;1489;-84
2022/05/05 01:29:32;;;;;;;5.43;3.10;;;;;;;;;;515975;28;1641;-84
2022/05/05 01:29:49;;;;;;;5.82;2.90;;;;;;;;;;516149;28;1533;-84
2022/05/05 01:30:06;;;;;;;6.40;2.90;;;;;;;;;;516455;28;1472;-84
2022/05/05 01:30:21;;;;;;;4.63;2.90;;;;;;;;;;515683;28;1439;-84
2022/05/05 01:30:45;;;;;;;4.57;2.73;;;;;;;;;;515553;28;1666;-84
2022/05/05 01:31:02;;;;;;;4.82;2.70;;;;;;;;;;516401;28;1704;-84
2022/05/05 01:31:17;;;;;;;5.22;2.60;;;;;;;;;;514426;28;1421;-84
2022/05/05 01:31:33;;;;;;;5.68;2.90;;;;;;;;;;514745;28;1715;-84
2022/05/05 01:31:48;;;;;;;5.03;2.80;;;;;;;;;;515948;28;1444;-84
2022/05/05 01:32:04;;;;;;;5.05;2.72;;;;;;;;;;516426;28;1778;-84
2022/05/05 01:32:19;;;;;;;5.37;3.00;;;;;;;;;;516224;28;1463;-84
2022/05/05 01:32:34;;;;;;;5.63;2.92;;;;;;;;;;516643;28;1531;-84
2022/05/05 01:32:50;;;;;;;4.87;2.80;;;;;;;;;;516796;28;1534;-84
2022/05/05 01:33:19;;;;;;;4.20;2.73;;;;;;;;;;516442;28;2111;-84
2022/05/05 01:33:35;;;;;;;4.20;2.70;;;;;;;;;;515548;28;1624;-84
2022/05/05 01:33:50;;;;;;;4.22;2.67;;;;;;;;;;518990;28;1549;-84
2022/05/05 01:34:06;;;;;;;5.13;2.70;;;;;;;;;;518443;28;1484;-84
2022/05/05 01:34:23;;;;;;;5.97;2.97;;;;;;;;;;518663;28;1567;-84
2022/05/05 01:34:38;;;;;;;6.00;2.97;;;;;;;;;;516791;28;1878;-84
2022/05/05 01:34:54;;;;;;;6.57;2.97;;;;;;;;;;515279;28;1566;-85
2022/05/05 01:35:09;;;;;;;5.87;2.80;;;;;;;;;;515096;28;1475;-84
2022/05/05 01:35:24;;;;;;;5.60;2.80;;;;;;;;;;515817;28;1622;-84
2022/05/05 01:35:41;;;;;;;7.07;3.10;;;;;;;;;;515937;28;1544;-84
2022/05/05 01:35:58;;;;;;;7.45;3.20;;;;;;;;;;517010;28;1570;-84
2022/05/05 01:36:13;;;;;;;6.07;2.97;;;;;;;;;;517060;28;1463;-84
2022/05/05 01:36:28;;;;;;;5.45;2.72;;;;;;;;;;516573;28;1515;-84
2022/05/05 01:36:44;;;;;;;5.07;2.70;;;;;;;;;;517389;28;1436;-84
2022/05/05 01:36:59;;;;;;;4.40;2.70;;;;;;;;;;516796;28;1519;-84
2022/05/05 01:37:14;;;;;;;4.90;2.60;;;;;;;;;;517324;28;1562;-84
2022/05/05 01:37:30;;;;;;;5.33;2.50;;;;;;;;;;516627;28;1527;-84
2022/05/05 01:37:45;;;;;;;6.43;2.70;;;;;;;;;;517044;28;1728;-84
2022/05/05 01:38:01;;;;;;;7.17;3.00;;;;;;;;;;517344;28;1652;-84
2022/05/05 01:38:21;;;;;;;5.93;3.00;;;;;;;;;;516872;28;1539;-84
2022/05/05 01:38:37;;;;;;;4.78;2.83;;;;;;;;;;516571;28;1420;-84
2022/05/05 01:38:52;;;;;;;4.23;2.87;;;;;;;;;;516618;28;1426;-84
2022/05/05 01:39:07;;;;;;;4.85;2.90;;;;;;;;;;514293;28;1713;-84
2022/05/05 01:39:23;;;;;;;5.43;2.93;;;;;;;;;;515584;28;1531;-84
2022/05/05 01:39:39;;;;;;;5.78;3.10;;;;;;;;;;514554;28;1519;-84
2022/05/05 01:39:54;;;;;;;6.80;3.10;;;;;;;;;;514235;28;1910;-84
2022/05/05 01:40:10;;;;;;;7.22;3.00;;;;;;;;;;514307;28;1510;-84
2022/05/05 01:40:25;;;;;;;5.77;2.80;;;;;;;;;;514997;28;1476;-84
2022/05/05 01:40:41;;;;;;;4.75;2.88;;;;;;;;;;514819;28;1590;-84
2022/05/05 01:40:57;;;;;;;6.00;3.03;;;;;;;;;;515034;28;1461;-84
2022/05/05 01:41:14;;;;;;;7.23;3.30;;;;;;;;;;514437;28;1780;-84
2022/05/05 01:41:30;;;;;;;5.38;3.00;;;;;;;;;;515203;28;1525;-83
2022/05/05 01:41:47;;;;;;;4.80;3.00;;;;;;;;;;515598;28;1611;-84
2022/05/05 01:42:02;;;;;;;5.20;3.28;;;;;;;;;;515447;28;1532;-84
2022/05/05 01:42:18;;;;;;;7.53;3.25;;;;;;;;;;514344;28;1540;-84
2022/05/05 01:42:33;;;;;;;8.30;3.20;;;;;;;;;;514421;28;1622;-84
2022/05/05 01:42:48;;;;;;;7.35;3.10;;;;;;;;;;514567;28;1521;-84
2022/05/05 01:43:04;;;;;;;7.73;3.20;;;;;;;;;;514726;28;1452;-85
2022/05/05 01:43:21;;;;;;;6.40;3.08;;;;;;;;;;516733;28;1411;-84
2022/05/05 01:43:38;;;;;;;5.55;2.83;;;;;;;;;;514826;28;1404;-84
2022/05/05 01:43:53;;;;;;;6.45;2.85;;;;;;;;;;513910;28;1622;-84
2022/05/05 01:44:09;;;;;;;6.43;3.13;;;;;;;;;;513302;28;1529;-84
2022/05/05 01:44:24;;;;;;;6.07;3.27;;;;;;;;;;514883;28;1559;-83
2022/05/05 01:44:39;;;;;;;5.53;3.00;;;;;;;;;;514355;28;1644;-84
2022/05/05 01:44:55;;;;;;;5.40;2.90;;;;;;;;;;513773;28;1679;-84
2022/05/05 01:45:10;;;;;;;5.70;3.03;;;;;;;;;;513851;28;1421;-84
2022/05/05 01:45:26;;;;;;;6.72;3.03;;;;;;;;;;513841;28;1591;-84
2022/05/05 01:45:42;;;;;;;6.97;3.10;;;;;;;;;;514866;28;1448;-84
2022/05/05 01:46:00;;;;;;;6.28;3.13;;;;;;;;;;514717;28;1897;-84
2022/05/05 01:46:16;;;;;;;6.88;3.22;;;;;;;;;;513010;28;1472;-84
2022/05/05 01:46:31;;;;;;;7.43;3.37;;;;;;;;;;514455;28;1512;-84
2022/05/05 01:46:46;;;;;;;6.55;3.58;;;;;;;;;;514790;28;1848;-84